createdAt,value
2023-02-28T00:00:44.280Z,20.47
2023-02-28T00:03:11.187Z,19.63
2023-02-28T00:05:37.981Z,18.33
2023-02-28T00:08:07.284Z,23.67
2023-02-28T00:10:34.110Z,22.83
2023-02-28T00:13:03.187Z,19.73
2023-02-28T00:15:30.086Z,21.20
2023-02-28T00:17:56.887Z,22.83
2023-02-28T00:20:27.078Z,22.27
2023-02-28T00:22:54.063Z,22.47
2023-02-28T00:25:25.427Z,24.87
2023-02-28T00:27:54.770Z,20.17
2023-02-28T00:30:24.389Z,23.17
2023-02-28T00:32:51.388Z,23.13
2023-02-28T00:35:20.694Z,25.47
2023-02-28T00:37:50.782Z,22.00
2023-02-28T00:40:17.698Z,21.63
2023-02-28T00:42:44.444Z,28.93
2023-02-28T00:45:11.385Z,23.13
2023-02-28T00:47:40.504Z,26.63
2023-02-28T00:50:08.192Z,22.93
2023-02-28T00:52:37.582Z,28.23
2023-02-28T00:55:05.000Z,25.73
2023-02-28T00:57:31.782Z,22.77
2023-02-28T00:59:58.622Z,34.07
2023-02-28T01:02:25.456Z,23.37
2023-02-28T01:04:52.881Z,25.83
2023-02-28T01:07:19.689Z,24.27
2023-02-28T01:09:51.445Z,27.27
2023-02-28T01:12:20.700Z,28.27
2023-02-28T01:14:49.736Z,26.00
2023-02-28T01:17:16.977Z,29.67
2023-02-28T01:19:43.761Z,27.13
2023-02-28T01:22:13.022Z,25.43
2023-02-28T01:24:42.074Z,23.63
2023-02-28T01:27:08.859Z,27.43
2023-02-28T01:29:35.640Z,31.67
2023-02-28T01:32:07.137Z,27.77
2023-02-28T01:34:33.954Z,29.33
2023-02-28T01:37:00.813Z,26.87
2023-02-28T01:39:27.657Z,32.00
2023-02-28T01:41:54.436Z,24.63
2023-02-28T01:45:00.265Z,29.30
2023-02-28T01:47:36.094Z,28.97
2023-02-28T01:50:05.494Z,24.40
2023-02-28T01:52:34.853Z,31.93
2023-02-28T01:55:02.544Z,24.10
2023-02-28T01:57:40.323Z,26.90
2023-02-28T02:00:14.280Z,27.23
2023-02-28T02:02:44.668Z,26.97
2023-02-28T02:05:19.128Z,34.10
2023-02-28T02:07:47.533Z,25.17
2023-02-28T02:10:21.910Z,26.10
2023-02-28T02:13:25.736Z,28.40
2023-02-28T02:16:21.718Z,27.07
2023-02-28T02:19:00.947Z,30.97
2023-02-28T02:21:49.483Z,28.43
2023-02-28T02:24:25.531Z,24.00
2023-02-28T02:27:31.288Z,28.00
2023-02-28T02:30:25.970Z,25.10
2023-02-28T02:33:18.520Z,25.77
2023-02-28T02:36:05.527Z,27.37
2023-02-28T02:38:32.367Z,25.13
2023-02-28T02:41:29.015Z,28.10
2023-02-28T02:44:18.361Z,28.33
2023-02-28T02:46:45.862Z,27.50
2023-02-28T02:49:27.294Z,27.77
2023-02-28T02:51:54.217Z,29.30
2023-02-28T02:54:29.793Z,30.63
2023-02-28T02:57:01.684Z,32.47
2023-02-28T02:59:29.302Z,26.57
2023-02-28T03:01:58.260Z,23.77
2023-02-28T03:04:25.904Z,25.07
2023-02-28T03:06:55.884Z,30.00
2023-02-28T03:09:26.483Z,27.03
2023-02-28T03:11:55.709Z,21.83
2023-02-28T03:14:58.872Z,22.33
2023-02-28T03:17:47.741Z,24.97
2023-02-28T03:20:33.329Z,25.37
2023-02-28T03:23:20.906Z,21.73
2023-02-28T03:25:59.945Z,22.47
2023-02-28T03:28:43.658Z,20.80
2023-02-28T03:31:20.804Z,24.37
2023-02-28T03:33:55.848Z,21.17
2023-02-28T03:36:30.831Z,20.37
2023-02-28T03:39:03.601Z,19.13
2023-02-28T03:41:52.448Z,17.10
2023-02-28T03:44:33.487Z,19.17
2023-02-28T03:47:05.816Z,16.83
2023-02-28T03:49:36.059Z,19.37
2023-02-28T03:52:03.822Z,18.10
2023-02-28T03:54:49.565Z,17.10
2023-02-28T03:57:29.136Z,17.87
2023-02-28T03:59:58.663Z,22.40
2023-02-28T04:02:28.475Z,16.07
2023-02-28T04:04:55.248Z,19.37
2023-02-28T04:07:24.544Z,16.90
2023-02-28T04:09:51.372Z,19.20
2023-02-28T04:12:18.187Z,15.60
2023-02-28T04:14:44.953Z,16.73
2023-02-28T04:17:11.739Z,17.37
2023-02-28T04:19:38.654Z,18.37
2023-02-28T04:22:05.468Z,15.17
2023-02-28T04:24:32.287Z,15.13
2023-02-28T04:27:01.441Z,14.57
2023-02-28T04:29:33.220Z,16.20
2023-02-28T04:32:00.523Z,17.43
2023-02-28T04:34:30.632Z,18.57
2023-02-28T04:37:16.482Z,20.53
2023-02-28T04:39:43.382Z,16.80
2023-02-28T04:42:10.548Z,18.63
2023-02-28T04:44:37.349Z,20.33
2023-02-28T04:47:04.214Z,18.07
2023-02-28T04:49:31.052Z,17.10
2023-02-28T04:51:57.825Z,20.90
2023-02-28T04:54:24.701Z,21.40
2023-02-28T04:56:53.948Z,19.03
2023-02-28T04:59:22.839Z,17.87
2023-02-28T05:01:50.329Z,19.83
2023-02-28T05:04:17.213Z,24.90
2023-02-28T05:06:48.463Z,19.40
2023-02-28T05:09:15.248Z,19.47
2023-02-28T05:11:42.250Z,19.63
2023-02-28T05:14:13.330Z,19.70
2023-02-28T05:16:42.413Z,16.17
2023-02-28T05:19:09.283Z,20.57
2023-02-28T05:21:36.890Z,16.60
2023-02-28T05:24:08.991Z,18.30
2023-02-28T05:26:42.932Z,19.87
2023-02-28T05:29:10.027Z,18.33
2023-02-28T05:31:37.282Z,19.63
2023-02-28T05:34:05.341Z,21.53
2023-02-28T05:36:34.800Z,19.93
2023-02-28T05:39:04.360Z,24.20
2023-02-28T05:41:31.527Z,19.50
2023-02-28T05:43:58.930Z,19.00
2023-02-28T05:46:25.782Z,20.47
2023-02-28T05:48:52.594Z,21.87
2023-02-28T05:51:19.429Z,20.93
2023-02-28T05:53:50.200Z,17.57
2023-02-28T05:56:19.254Z,18.50
2023-02-28T05:58:48.186Z,22.77
2023-02-28T06:01:41.987Z,20.73
2023-02-28T06:04:19.329Z,19.67
2023-02-28T06:06:54.782Z,19.43
2023-02-28T06:09:21.635Z,21.63
2023-02-28T06:11:48.480Z,19.77
2023-02-28T06:14:19.505Z,21.00
2023-02-28T06:16:48.693Z,22.50
2023-02-28T06:19:17.720Z,26.00
2023-02-28T06:21:44.552Z,20.03
2023-02-28T06:24:14.499Z,21.30
2023-02-28T06:26:43.634Z,24.83
2023-02-28T06:29:12.566Z,23.50
2023-02-28T06:31:41.826Z,25.93
2023-02-28T06:34:12.562Z,21.40
2023-02-28T06:36:45.034Z,19.90
2023-02-28T06:39:11.849Z,29.37
2023-02-28T06:41:54.066Z,19.87
2023-02-28T06:44:21.725Z,17.53
2023-02-28T06:46:49.071Z,18.53
2023-02-28T06:49:21.419Z,14.93
2023-02-28T06:51:48.260Z,17.07
2023-02-28T06:54:17.141Z,15.67
2023-02-28T06:56:43.959Z,15.87
2023-02-28T06:59:10.854Z,16.53
2023-02-28T07:01:40.090Z,16.80
2023-02-28T07:04:07.130Z,14.53
2023-02-28T07:06:34.119Z,16.83
2023-02-28T07:09:01.588Z,12.60
2023-02-28T07:11:29.129Z,15.80
2023-02-28T07:13:56.775Z,14.70
2023-02-28T07:16:23.912Z,14.53
2023-02-28T07:18:50.870Z,12.20
2023-02-28T07:21:17.689Z,15.27
2023-02-28T07:23:46.827Z,16.70
2023-02-28T07:26:18.130Z,14.17
2023-02-28T07:28:48.045Z,15.40
2023-02-28T07:31:15.403Z,16.10
2023-02-28T07:33:42.693Z,17.87
2023-02-28T07:36:16.224Z,16.70
2023-02-28T07:38:48.603Z,12.10
2023-02-28T07:41:18.705Z,11.93
2023-02-28T07:43:45.719Z,17.43
2023-02-28T07:46:16.284Z,13.27
2023-02-28T07:48:46.745Z,10.40
2023-02-28T07:51:13.520Z,12.53
2023-02-28T07:53:42.759Z,12.77
2023-02-28T07:56:14.248Z,15.37
2023-02-28T07:58:41.032Z,11.77
2023-02-28T08:01:09.033Z,10.30
2023-02-28T08:03:36.430Z,13.60
2023-02-28T08:06:08.881Z,13.00
2023-02-28T08:08:35.663Z,13.00
2023-02-28T08:11:03.150Z,14.53
2023-02-28T08:13:30.305Z,13.93
2023-02-28T08:15:57.281Z,15.40
2023-02-28T08:18:26.184Z,15.27
2023-02-28T08:20:58.545Z,14.70
2023-02-28T08:23:27.817Z,13.47
2023-02-28T08:25:56.132Z,18.63
2023-02-28T08:28:24.989Z,12.77
2023-02-28T08:30:55.431Z,13.17
2023-02-28T08:33:23.832Z,15.43
2023-02-28T08:35:54.226Z,12.47
2023-02-28T08:38:21.023Z,17.03
2023-02-28T08:40:50.035Z,12.87
2023-02-28T08:43:16.853Z,20.97
2023-02-28T08:45:45.989Z,16.13
2023-02-28T08:48:17.182Z,12.40
2023-02-28T08:50:46.565Z,12.30
2023-02-28T08:53:17.138Z,13.90
2023-02-28T08:55:46.111Z,13.00
2023-02-28T08:58:12.896Z,13.60
2023-02-28T09:00:42.213Z,14.43
2023-02-28T09:03:09.032Z,13.90
2023-02-28T09:05:38.315Z,14.00
2023-02-28T09:08:05.656Z,14.03
2023-02-28T09:10:32.396Z,13.60
2023-02-28T09:13:01.470Z,12.57
2023-02-28T09:15:28.228Z,14.50
2023-02-28T09:17:57.608Z,14.40
2023-02-28T09:20:24.542Z,9.87
2023-02-28T09:22:51.336Z,10.47
2023-02-28T09:25:20.569Z,13.80
2023-02-28T09:27:49.776Z,15.10
2023-02-28T09:30:17.274Z,13.93
2023-02-28T09:32:53.036Z,14.90
2023-02-28T09:35:26.207Z,13.17
2023-02-28T09:37:54.101Z,17.07
2023-02-28T09:40:22.297Z,13.23
2023-02-28T09:42:50.293Z,18.83
2023-02-28T09:45:40.150Z,14.27
2023-02-28T09:48:17.063Z,18.20
2023-02-28T09:50:51.814Z,15.67
2023-02-28T09:53:40.962Z,17.00
2023-02-28T09:56:27.562Z,15.50
2023-02-28T09:59:08.239Z,19.97
2023-02-28T10:01:47.172Z,16.17
2023-02-28T10:04:18.045Z,22.53
2023-02-28T10:06:50.176Z,17.17
2023-02-28T10:09:28.149Z,14.50
2023-02-28T10:11:58.431Z,18.93
2023-02-28T10:14:29.584Z,22.40
2023-02-28T10:17:11.313Z,19.97
2023-02-28T10:20:08.758Z,16.70
2023-02-28T10:22:45.591Z,18.67
2023-02-28T10:25:23.377Z,21.80
2023-02-28T10:27:51.338Z,16.80
2023-02-28T10:30:18.366Z,18.93
2023-02-28T10:32:52.018Z,21.57
2023-02-28T10:35:27.727Z,16.93
2023-02-28T10:37:56.141Z,16.80
2023-02-28T10:40:22.873Z,18.27
2023-02-28T10:43:03.942Z,21.47
2023-02-28T10:45:38.049Z,16.53
2023-02-28T10:48:35.382Z,13.83
2023-02-28T10:51:02.786Z,16.43
2023-02-28T10:53:57.668Z,17.33
2023-02-28T10:56:27.340Z,20.83
2023-02-28T10:58:55.803Z,18.10
2023-02-28T11:01:25.039Z,17.00
2023-02-28T11:03:54.493Z,21.27
2023-02-28T11:06:34.488Z,17.93
2023-02-28T11:09:07.070Z,20.67
2023-02-28T11:11:46.424Z,17.00
2023-02-28T11:14:25.977Z,21.27
2023-02-28T11:16:55.128Z,20.10
2023-02-28T11:19:27.973Z,15.07
2023-02-28T11:21:57.802Z,19.73
2023-02-28T11:24:26.131Z,20.43
2023-02-28T11:26:55.065Z,16.50
2023-02-28T11:29:28.131Z,18.17
2023-02-28T11:32:10.024Z,24.67
2023-02-28T11:34:38.521Z,20.80
2023-02-28T11:37:06.484Z,20.83
2023-02-28T11:39:33.963Z,23.60
2023-02-28T11:42:48.705Z,21.83
2023-02-28T11:45:51.434Z,17.80
2023-02-28T11:48:37.780Z,20.57
2023-02-28T11:51:13.542Z,21.53
2023-02-28T11:53:54.867Z,21.43
2023-02-28T11:56:30.663Z,23.57
2023-02-28T11:59:21.954Z,19.53
2023-02-28T12:02:22.248Z,23.67
2023-02-28T12:05:22.526Z,19.00
2023-02-28T12:08:11.206Z,19.80
2023-02-28T12:10:55.500Z,19.93
2023-02-28T12:13:29.197Z,19.77
2023-02-28T12:16:14.774Z,24.40
2023-02-28T12:19:16.814Z,23.87
2023-02-28T12:22:31.266Z,18.57
2023-02-28T12:25:25.207Z,16.47
2023-02-28T12:27:54.166Z,21.83
2023-02-28T12:30:26.646Z,17.53
2023-02-28T12:33:15.342Z,17.93
2023-02-28T12:35:50.883Z,17.73
2023-02-28T12:38:25.699Z,17.50
2023-02-28T12:41:15.671Z,18.30
2023-02-28T12:43:50.120Z,15.97
2023-02-28T12:46:25.393Z,14.43
2023-02-28T12:48:56.598Z,17.53
2023-02-28T12:51:23.618Z,16.50
2023-02-28T12:53:50.407Z,16.90
2023-02-28T12:56:33.722Z,19.63
2023-02-28T12:59:49.625Z,18.50
2023-02-28T13:02:22.419Z,17.07
2023-02-28T13:05:15.536Z,19.37
2023-02-28T13:08:23.729Z,19.67
2023-02-28T13:10:55.260Z,17.23
2023-02-28T13:13:30.688Z,20.93
2023-02-28T13:16:09.120Z,19.67
2023-02-28T13:18:55.892Z,23.73
2023-02-28T13:21:32.728Z,16.67
2023-02-28T13:24:07.201Z,17.17
2023-02-28T13:26:39.294Z,14.57
2023-02-28T13:29:12.258Z,19.13
2023-02-28T13:32:06.893Z,21.60
2023-02-28T13:34:34.659Z,25.10
2023-02-28T13:37:45.752Z,21.07
2023-02-28T13:40:12.537Z,22.27
2023-02-28T13:42:45.968Z,19.70
2023-02-28T13:45:14.046Z,20.83
2023-02-28T13:47:45.848Z,21.93
2023-02-28T13:50:25.195Z,19.23
2023-02-28T13:53:13.871Z,21.17
2023-02-28T13:55:47.106Z,17.87
2023-02-28T13:58:31.784Z,23.87
2023-02-28T14:01:22.791Z,22.73
2023-02-28T14:04:29.049Z,21.27
2023-02-28T14:06:56.127Z,20.33
2023-02-28T14:09:25.074Z,18.70
2023-02-28T14:11:52.376Z,20.80
2023-02-28T14:14:37.517Z,17.67
2023-02-28T14:17:05.200Z,24.10
2023-02-28T14:19:32.934Z,23.97
2023-02-28T14:22:20.458Z,19.70
2023-02-28T14:25:06.698Z,25.70
2023-02-28T14:27:49.256Z,23.50
2023-02-28T14:30:59.943Z,21.10
2023-02-28T14:33:44.561Z,20.13
2023-02-28T14:36:33.128Z,26.50
2023-02-28T14:39:07.065Z,20.20
2023-02-28T14:41:45.185Z,20.30
2023-02-28T14:44:21.746Z,18.03
2023-02-28T14:46:55.221Z,21.47
2023-02-28T14:49:28.914Z,20.67
2023-02-28T14:52:14.413Z,25.67
2023-02-28T14:54:45.472Z,19.67
2023-02-28T14:57:35.290Z,29.43
2023-02-28T15:00:02.353Z,20.33
2023-02-28T15:02:34.389Z,20.83
2023-02-28T15:05:11.183Z,20.37
2023-02-28T15:07:38.082Z,17.70
2023-02-28T15:10:15.363Z,18.77
2023-02-28T15:12:42.889Z,20.20
2023-02-28T15:15:28.076Z,20.47
2023-02-28T15:18:05.479Z,21.47
2023-02-28T15:20:32.466Z,17.77
2023-02-28T15:23:01.442Z,19.50
2023-02-28T15:25:28.219Z,17.60
2023-02-28T15:27:56.012Z,18.37
2023-02-28T15:30:34.559Z,20.40
2023-02-28T15:33:09.342Z,17.23
2023-02-28T15:35:36.652Z,19.07
2023-02-28T15:38:03.643Z,16.93
2023-02-28T15:40:38.135Z,18.27
2023-02-28T15:43:24.009Z,18.53
2023-02-28T15:46:00.809Z,16.07
2023-02-28T15:48:33.880Z,20.37
2023-02-28T15:51:20.790Z,18.37
2023-02-28T15:54:01.869Z,18.07
2023-02-28T15:56:29.564Z,22.07
2023-02-28T15:59:00.930Z,18.40
2023-02-28T16:01:31.417Z,20.87
2023-02-28T16:04:02.037Z,20.80
2023-02-28T16:06:47.377Z,15.30
2023-02-28T16:09:18.158Z,20.30
2023-02-28T16:11:49.714Z,22.37
2023-02-28T16:14:19.050Z,22.47
2023-02-28T16:16:50.767Z,20.47
2023-02-28T16:19:17.912Z,22.47
2023-02-28T16:21:45.058Z,22.70
2023-02-28T16:24:12.097Z,20.73
2023-02-28T16:26:42.105Z,21.40
2023-02-28T16:29:09.720Z,21.13
2023-02-28T16:31:38.007Z,18.63
2023-02-28T16:34:05.277Z,21.73
2023-02-28T16:36:32.277Z,20.10
2023-02-28T16:38:59.161Z,23.27
2023-02-28T16:41:27.052Z,22.07
2023-02-28T16:43:54.891Z,26.57
2023-02-28T16:46:21.880Z,20.13
2023-02-28T16:48:52.391Z,24.57
2023-02-28T16:51:21.562Z,28.27
2023-02-28T16:53:48.405Z,26.50
2023-02-28T16:56:25.424Z,26.00
2023-02-28T16:58:52.444Z,24.70
2023-02-28T17:01:22.988Z,25.80
2023-02-28T17:03:50.440Z,24.33
2023-02-28T17:06:37.563Z,26.73
2023-02-28T17:09:04.453Z,24.93
2023-02-28T17:11:31.583Z,25.40
2023-02-28T17:13:58.847Z,26.30
2023-02-28T17:16:35.754Z,33.03
2023-02-28T17:19:04.670Z,25.77
2023-02-28T17:21:32.199Z,28.20
2023-02-28T17:24:01.579Z,27.67
2023-02-28T17:26:29.233Z,33.67
2023-02-28T17:28:56.881Z,27.13
2023-02-28T17:31:27.602Z,30.97
2023-02-28T17:33:55.626Z,37.80
2023-02-28T17:36:29.669Z,33.03
2023-02-28T17:38:56.736Z,31.43
2023-02-28T17:41:23.542Z,37.60
2023-02-28T17:43:51.561Z,35.67
2023-02-28T17:46:22.268Z,31.83
2023-02-28T17:48:52.448Z,30.63
2023-02-28T17:51:20.957Z,34.90
2023-02-28T17:53:47.895Z,33.37
2023-02-28T17:56:22.786Z,31.97
2023-02-28T17:58:49.866Z,36.70
2023-02-28T18:01:17.907Z,35.73
2023-02-28T18:03:44.814Z,37.60
2023-02-28T18:06:28.556Z,34.83
2023-02-28T18:08:55.633Z,35.20
2023-02-28T18:11:22.939Z,44.10
2023-02-28T18:13:51.095Z,43.90
2023-02-28T18:16:18.216Z,44.50
2023-02-28T18:18:47.263Z,40.13
2023-02-28T18:21:15.196Z,38.87
2023-02-28T18:23:48.213Z,38.70
2023-02-28T18:26:16.441Z,44.00
2023-02-28T18:28:44.710Z,55.20
2023-02-28T18:31:16.271Z,45.53
2023-02-28T18:33:48.130Z,40.13
2023-02-28T18:36:14.959Z,39.63
2023-02-28T18:38:42.296Z,38.80
2023-02-28T18:41:09.105Z,38.87
2023-02-28T18:43:38.433Z,40.77
2023-02-28T18:46:12.239Z,40.13
2023-02-28T18:48:39.091Z,41.93
2023-02-28T18:51:09.733Z,42.50
2023-02-28T18:53:39.329Z,48.73
2023-02-28T18:56:06.798Z,43.80
2023-02-28T18:58:35.870Z,51.93
2023-02-28T19:01:03.473Z,53.13
2023-02-28T19:03:32.584Z,57.60
2023-02-28T19:06:01.596Z,60.97
2023-02-28T19:08:28.503Z,66.30
2023-02-28T19:10:55.424Z,64.97
2023-02-28T19:13:22.225Z,64.10
2023-02-28T19:15:56.412Z,64.13
2023-02-28T19:18:26.225Z,73.00
2023-02-28T19:20:55.452Z,67.93
2023-02-28T19:23:22.238Z,66.70
2023-02-28T19:25:49.110Z,67.23
2023-02-28T19:28:16.027Z,62.23
2023-02-28T19:30:49.879Z,56.50
2023-02-28T19:33:19.473Z,67.40
2023-02-28T19:35:46.837Z,68.13
2023-02-28T19:38:13.644Z,65.47
2023-02-28T19:40:44.174Z,70.87
2023-02-28T19:43:11.026Z,68.23
2023-02-28T19:45:40.683Z,64.03
2023-02-28T19:48:09.903Z,62.97
2023-02-28T19:50:41.420Z,69.40
2023-02-28T19:53:08.271Z,64.60
2023-02-28T19:55:37.667Z,66.47
2023-02-28T19:58:04.442Z,65.67
2023-02-28T20:00:33.775Z,63.10
2023-02-28T20:03:00.712Z,66.93
2023-02-28T20:05:27.488Z,56.50
2023-02-28T20:07:54.287Z,67.13
2023-02-28T20:10:21.111Z,62.87
2023-02-28T20:12:47.899Z,60.60
2023-02-28T20:15:16.964Z,72.13
2023-02-28T20:17:46.754Z,59.57
2023-02-28T20:20:13.662Z,57.53
2023-02-28T20:22:40.446Z,64.27
2023-02-28T20:25:08.205Z,69.60
2023-02-28T20:27:35.278Z,62.77
2023-02-28T20:30:07.255Z,65.87
2023-02-28T20:32:39.701Z,69.43
2023-02-28T20:35:08.703Z,64.87
2023-02-28T20:37:37.710Z,60.43
2023-02-28T20:40:08.180Z,62.63
2023-02-28T20:42:35.001Z,67.60
2023-02-28T20:45:04.525Z,71.93
2023-02-28T20:47:31.349Z,74.93
2023-02-28T20:49:58.201Z,80.03
2023-02-28T20:52:25.150Z,87.80
2023-02-28T20:54:51.973Z,84.57
2023-02-28T20:57:21.117Z,75.93
2023-02-28T20:59:50.316Z,78.73
2023-02-28T21:02:17.328Z,77.07
2023-02-28T21:04:46.332Z,84.20
2023-02-28T21:07:13.130Z,80.33
2023-02-28T21:09:40.001Z,83.97
2023-02-28T21:12:06.932Z,87.83
2023-02-28T21:14:33.745Z,79.07
2023-02-28T21:17:00.639Z,82.70
2023-02-28T21:19:27.456Z,74.87
2023-02-28T21:21:56.824Z,81.80
2023-02-28T21:24:25.859Z,76.80
2023-02-28T21:26:53.996Z,82.80
2023-02-28T21:29:20.852Z,88.27
2023-02-28T21:31:50.298Z,84.10
2023-02-28T21:34:19.501Z,88.27
2023-02-28T21:36:47.409Z,106.10
2023-02-28T21:39:14.456Z,101.57
2023-02-28T21:41:42.144Z,96.70
2023-02-28T21:44:09.980Z,96.37
2023-02-28T21:46:38.986Z,107.87
2023-02-28T21:49:05.858Z,111.27
2023-02-28T21:51:32.608Z,115.87
2023-02-28T21:54:00.071Z,124.00
2023-02-28T21:56:31.921Z,129.37
2023-02-28T21:59:02.242Z,131.43
2023-02-28T22:01:31.130Z,136.90
2023-02-28T22:04:00.372Z,128.73
2023-02-28T22:06:29.052Z,126.67
2023-02-28T22:08:57.212Z,125.73
2023-02-28T22:11:25.126Z,130.13
2023-02-28T22:14:00.204Z,123.37
2023-02-28T22:16:31.194Z,116.57
2023-02-28T22:19:00.225Z,112.40
2023-02-28T22:21:27.143Z,108.23
2023-02-28T22:23:53.990Z,107.87
2023-02-28T22:26:21.633Z,103.53
2023-02-28T22:28:51.004Z,105.73
2023-02-28T22:31:22.695Z,98.07
2023-02-28T22:33:49.855Z,103.97
2023-02-28T22:36:17.578Z,94.53
2023-02-28T22:38:44.678Z,99.50
2023-02-28T22:41:12.035Z,92.27
2023-02-28T22:43:44.525Z,100.13
2023-02-28T22:46:12.622Z,98.77
2023-02-28T22:48:39.620Z,101.17
2023-02-28T22:51:07.600Z,90.47
2023-02-28T22:53:35.264Z,88.17
2023-02-28T22:56:05.599Z,95.97
2023-02-28T22:58:37.543Z,97.80
2023-02-28T23:01:11.820Z,98.00
2023-02-28T23:03:38.814Z,96.93
2023-02-28T23:06:17.887Z,106.10
2023-02-28T23:08:44.890Z,109.47
2023-02-28T23:11:16.428Z,121.57
2023-02-28T23:13:46.613Z,118.43
2023-02-28T23:16:13.389Z,114.93
2023-02-28T23:18:40.587Z,121.77
2023-02-28T23:21:09.846Z,118.13
2023-02-28T23:23:36.739Z,122.33
2023-02-28T23:26:07.996Z,124.57
2023-02-28T23:28:36.945Z,122.33
2023-02-28T23:31:06.749Z,121.87
2023-02-28T23:33:35.716Z,115.97
2023-02-28T23:36:15.277Z,121.23
2023-02-28T23:38:46.538Z,115.93
2023-02-28T23:41:16.004Z,118.67
2023-02-28T23:43:42.830Z,125.03
2023-02-28T23:46:10.140Z,118.07
2023-02-28T23:48:39.699Z,118.30
2023-02-28T23:51:12.450Z,114.43
2023-02-28T23:53:40.809Z,111.83
2023-02-28T23:56:08.168Z,123.00
2023-02-28T23:58:35.085Z,117.03
